This is the latest recevied weather packets stored in our database for station/object SP1BMW-13. If no packets are shown the sender has not sent any weather packets the latest 10 day(s).
| Time | Temp. | Humidity | Pressure | Rain* | Wind** | Luminosity | Snow |
|---|---|---|---|---|---|---|---|
| 1787674868 | 23.33° C | 42% | 1018 hPa | 0 mm | 0.89 m/s, 61° | 141 W/m² | - |
| 1787674808 | 23.33° C | 43% | 1018 hPa | 0 mm | 0 m/s | 143 W/m² | - |
| 1787674747 | 23.33° C | 41% | 1017.9 hPa | 0 mm | 0.89 m/s, 58° | 145 W/m² | - |
| 1787674687 | 23.33° C | 41% | 1017.8 hPa | 0 mm | 1.79 m/s, 27° | 147 W/m² | - |
| 1787674628 | 23.33° C | 41% | 1018 hPa | 0 mm | 0.89 m/s, 25° | 149 W/m² | - |
| 1787674567 | 23.33° C | 41% | 1017.9 hPa | 0 mm | 0.45 m/s, 71° | 150 W/m² | - |
| 1787674508 | 23.33° C | 41% | 1017.9 hPa | 0 mm | 1.34 m/s, 56° | 152 W/m² | - |
| 1787674447 | 23.33° C | 40% | 1017.9 hPa | 0 mm | 1.34 m/s, 17° | 153 W/m² | - |
| 1787674388 | 23.33° C | 43% | 1017.8 hPa | 0 mm | 0.45 m/s, 92° | 153 W/m² | - |
| 1787674327 | 23.33° C | 45% | 1017.8 hPa | 0 mm | 0.45 m/s, 81° | 154 W/m² | - |
| 1787674267 | 23.33° C | 42% | 1018 hPa | 0 mm | 0.89 m/s, 35° | 155 W/m² | - |
| 1787674207 | 23.33° C | 43% | 1018 hPa | 0 mm | 0.45 m/s, 38° | 159 W/m² | - |
| 1787674148 | 23.33° C | 44% | 1017.9 hPa | 0 mm | 0 m/s | 162 W/m² | - |
| 1787674087 | 23.33° C | 42% | 1017.9 hPa | 0 mm | 0.89 m/s, 30° | 164 W/m² | - |
| 1787674028 | 23.33° C | 41% | 1017.9 hPa | 0 mm | 0.89 m/s, 65° | 168 W/m² | - |
| 1787673967 | 23.33° C | 41% | 1017.9 hPa | 0 mm | 1.34 m/s, 41° | 170 W/m² | - |
| 1787673908 | 23.33° C | 42% | 1017.9 hPa | 0 mm | 0.89 m/s, 56° | 173 W/m² | - |
| 1787673847 | 23.33° C | 41% | 1018.1 hPa | 0 mm | 0.89 m/s, 66° | 175 W/m² | - |
| 1787673787 | 23.33° C | 41% | 1017.9 hPa | 0 mm | 0.89 m/s, 43° | 178 W/m² | - |
| 1787673727 | 23.33° C | 41% | 1017.9 hPa | 0 mm | 0.89 m/s, 38° | 181 W/m² | - |
| 1787673667 | 23.33° C | 41% | 1017.9 hPa | 0 mm | 1.34 m/s, 41° | 184 W/m² | - |
| 1787673607 | 23.33° C | 41% | 1017.9 hPa | 0 mm | 1.34 m/s, 130° | 187 W/m² | - |
| 1787673547 | 23.33° C | 41% | 1017.8 hPa | 0 mm | 2.24 m/s, 45° | 190 W/m² | - |
| 1787673487 | 23.33° C | 43% | 1017.9 hPa | 0 mm | 0.45 m/s, 8° | 193 W/m² | - |
| 1787673427 | 23.33° C | 43% | 1018.1 hPa | 0 mm | 0.45 m/s, 44° | 196 W/m² | - |
* Rain latest hour (hover to see other rain measurements)
** Current wind speed in m/s (hover to see current wind gust speed)